| time (UTC) | temp F | wind direction | speed knots | gust knots | rain 1hr in | rain 24hr in | rain mn in | humidity % | barometer mb |
| 20260508145636 | 58 | 17 | 2.6 | 6.1 | 0.00 | 0.04 | 0.04 | 75 | 1017.6 |
| 20260508145133 | 58 | 32 | 2.6 | 6.1 | 0.00 | 0.04 | 0.04 | 76 | 1017.4 |
| 20260508144633 | 57 | 353 | 1.7 | 9.6 | 0.00 | 0.04 | 0.04 | 77 | 1017.4 |
| 20260508144133 | 57 | 0 | 4.3 | 9.6 | 0.00 | 0.04 | 0.04 | 76 | 1017.4 |
| 20260508143633 | 57 | 340 | 4.3 | 9.6 | 0.00 | 0.04 | 0.04 | 75 | 1017.5 |
| 20260508142637 | 58 | 348 | 7.8 | 12.2 | 0.00 | 0.04 | 0.04 | 72 | 1017.4 |
| 20260508142132 | 58 | 281 | 6.1 | 10.4 | 0.00 | 0.04 | 0.04 | 72 | 1017.4 |
| 20260508141634 | 58 | 348 | 2.6 | 5.2 | 0.00 | 0.04 | 0.04 | 70 | 1017.4 |
| 20260508141133 | 59 | 334 | 2.6 | 5.2 | 0.00 | 0.04 | 0.04 | 70 | 1017.3 |
| 20260508140134 | 60 | 327 | 1.7 | 6.1 | 0.00 | 0.04 | 0.04 | 69 | 1017.3 |
| 20260508135634 | 60 | 251 | 1.7 | 6.1 | 0.00 | 0.04 | 0.04 | 66 | 1017.2 |
| 20260508135135 | 60 | 285 | 2.6 | 7.0 | 0.00 | 0.04 | 0.04 | 65 | 1017.1 |
| 20260508134633 | 60 | 0 | 1.7 | 7.8 | 0.00 | 0.04 | 0.04 | 65 | 1017.1 |
| 20260508134135 | 61 | 278 | 2.6 | 9.6 | 0.00 | 0.04 | 0.04 | 63 | 1017.0 |
| 20260508133634 | 61 | 264 | 2.6 | 9.6 | 0.00 | 0.04 | 0.04 | 62 | 1017.0 |
| 20260508133134 | 61 | 224 | 2.6 | 7.8 | 0.00 | 0.04 | 0.04 | 63 | 1017.0 |
| 20260508132633 | 61 | 309 | 2.6 | 7.8 | 0.00 | 0.04 | 0.04 | 62 | 1017.1 |
| 20260508132135 | 61 | 251 | 3.5 | 7.0 | 0.00 | 0.04 | 0.04 | 61 | 1017.1 |
| 20260508131635 | 61 | 202 | 2.6 | 7.0 | 0.00 | 0.04 | 0.04 | 65 | 1017.1 |
| 20260508131135 | 61 | 168 | 2.6 | 7.8 | 0.00 | 0.04 | 0.04 | 64 | 1017.1 |
| 20260508130633 | 61 | 166 | 3.5 | 10.4 | 0.00 | 0.04 | 0.04 | 64 | 1017.1 |
| 20260508130134 | 61 | 96 | 3.5 | 10.4 | 0.00 | 0.04 | 0.04 | 65 | 1017.1 |
| 20260508125635 | 61 | 217 | 3.5 | 9.6 | 0.00 | 0.04 | 0.04 | 65 | 1017.2 |
| 20260508125134 | 61 | 200 | 3.5 | 10.4 | 0.00 | 0.04 | 0.04 | 65 | 1017.2 |
| 20260508124635 | 61 | 235 | 4.3 | 12.2 | 0.03 | 0.04 | 0.04 | 65 | 1017.1 |
| 20260508123134 | 60 | 168 | 4.3 | 10.4 | 0.04 | 0.04 | 0.04 | 70 | 1017.1 |
| 20260508122636 | 60 | 196 | 6.1 | 10.4 | 0.04 | 0.04 | 0.04 | 75 | 1017.1 |
| 20260508122137 | 59 | 237 | 1.7 | 5.2 | 0.04 | 0.04 | 0.04 | 72 | 1017.1 |
| 20260508121635 | 59 | 219 | 2.6 | 5.2 | 0.04 | 0.04 | 0.04 | 76 | 1017.1 |
| 20260508121131 | 58 | 214 | 1.7 | 5.2 | 0.04 | 0.04 | 0.04 | 78 | 1017.1 |
| 20260508120633 | 58 | 207 | 1.7 | 6.1 | 0.04 | 0.04 | 0.04 | 78 | 1017.1 |
| 20260508120133 | 58 | 323 | 2.6 | 6.1 | 0.04 | 0.04 | 0.04 | 75 | 1017.2 |
| 20260508115633 | 58 | 195 | 3.5 | 6.1 | 0.04 | 0.04 | 0.04 | 70 | 1017.2 |
| 20260508115133 | 58 | 274 | 1.7 | 6.1 | 0.04 | 0.04 | 0.04 | 70 | 1017.2 |
| 20260508114634 | 59 | 233 | 3.5 | 7.8 | 0.01 | 0.01 | 0.01 | 65 | 1017.2 |
| 20260508114134 | 59 | 230 | 5.2 | 7.8 | 0.00 | 0.00 | 0.00 | 62 | 1017.1 |
| 20260508113633 | 59 | 243 | 3.5 | 11.3 | 0.00 | 0.00 | 0.00 | 60 | 1017.0 |
| 20260508113133 | 60 | 204 | 3.5 | 11.3 | 0.00 | 0.00 | 0.00 | 60 | 1017.1 |
| 20260508112633 | 60 | 252 | 1.7 | 9.6 | 0.00 | 0.00 | 0.00 | 61 | 1017.0 |
| 20260508112133 | 60 | 204 | 5.2 | 9.6 | 0.00 | 0.00 | 0.00 | 61 | 1017.0 |
| 20260508111634 | 60 | 235 | 4.3 | 7.8 | 0.00 | 0.00 | 0.00 | 62 | 1016.9 |
| 20260508111133 | 60 | 258 | 3.5 | 7.8 | 0.00 | 0.00 | 0.00 | 62 | 1017.0 |
| 20260508110634 | 60 | 219 | 3.5 | 10.4 | 0.00 | 0.00 | 0.00 | 61 | 1016.9 |
| 20260508110132 | 60 | 237 | 5.2 | 10.4 | 0.00 | 0.00 | 0.00 | 61 | 1016.8 |
| 20260508105633 | 60 | 247 | 4.3 | 9.6 | 0.00 | 0.00 | 0.00 | 62 | 1017.0 |
| 20260508105133 | 60 | 199 | 4.3 | 10.4 | 0.00 | 0.00 | 0.00 | 62 | 1016.9 |
| 20260508104134 | 60 | 231 | 3.5 | 7.8 | 0.00 | 0.00 | 0.00 | 61 | 1016.9 |
| 20260508103633 | 60 | 244 | 2.6 | 6.1 | 0.00 | 0.00 | 0.00 | 61 | 1016.9 |
| 20260508103133 | 61 | 259 | 1.7 | 9.6 | 0.00 | 0.00 | 0.00 | 59 | 1016.8 |
| 20260508102634 | 61 | 247 | 4.3 | 9.6 | 0.00 | 0.00 | 0.00 | 61 | 1016.9 |
| 20260508102133 | 60 | 279 | 1.7 | 6.1 | 0.00 | 0.00 | 0.00 | 64 | 1016.8 |
| 20260508101635 | 59 | 178 | 1.7 | 7.0 | 0.00 | 0.00 | 0.00 | 65 | 1016.9 |
| 20260508101139 | 59 | 209 | 4.3 | 7.8 | 0.00 | 0.00 | 0.00 | 65 | 1016.9 |
| 20260508100633 | 60 | 231 | 4.3 | 7.8 | 0.00 | 0.00 | 0.00 | 63 | 1016.9 |
| 20260508100133 | 61 | 233 | 4.3 | 9.6 | 0.00 | 0.00 | 0.00 | 64 | 1016.9 |
| 20260508095633 | 61 | 209 | 3.5 | 9.6 | 0.00 | 0.00 | 0.00 | 64 | 1016.9 |
| 20260508095133 | 62 | 128 | 1.7 | 9.6 | 0.00 | 0.00 | 0.00 | 64 | 1016.9 |
| 20260508094633 | 61 | 182 | 5.2 | 11.3 | 0.00 | 0.00 | 0.00 | 64 | 1016.8 |
| 20260508094133 | 61 | 195 | 4.3 | 11.3 | 0.00 | 0.00 | 0.00 | 65 | 1016.8 |
| 20260508092633 | 60 | 151 | 4.3 | 10.4 | 0.00 | 0.00 | 0.00 | 66 | 1016.8 |
| 20260508092133 | 60 | 175 | 2.6 | 9.6 | 0.00 | 0.00 | 0.00 | 68 | 1016.8 |
| 20260508091633 | 59 | 151 | 4.3 | 9.6 | 0.00 | 0.00 | 0.00 | 67 | 1016.8 |
| 20260508090634 | 59 | 248 | 2.6 | 9.6 | 0.00 | 0.00 | 0.00 | 70 | 1016.8 |
| 20260508090133 | 59 | 275 | 2.6 | 9.6 | 0.00 | 0.00 | 0.00 | 69 | 1016.7 |
| 20260508085632 | 58 | 255 | 3.5 | 11.3 | 0.00 | 0.00 | 0.00 | 70 | 1016.8 |
| 20260508085132 | 58 | 250 | 4.3 | 11.3 | 0.00 | 0.00 | 0.00 | 71 | 1016.8 |
| 20260508084634 | 57 | 221 | 4.3 | 10.4 | 0.00 | 0.00 | 0.00 | 73 | 1016.9 |
| 20260508084138 | 56 | 176 | 4.3 | 7.8 | 0.00 | 0.00 | 0.00 | 75 | 1016.9 |
| 20260508083633 | 55 | 178 | 2.6 | 7.0 | 0.00 | 0.00 | 0.00 | 76 | 1016.8 |
| 20260508083133 | 55 | 235 | 3.5 | 7.8 | 0.00 | 0.00 | 0.00 | 77 | 1016.8 |
| 20260508082633 | 55 | 193 | 4.3 | 9.6 | 0.00 | 0.00 | 0.00 | 77 | 1016.9 |
| 20260508082133 | 54 | 176 | 3.5 | 10.4 | 0.00 | 0.00 | 0.00 | 78 | 1016.8 |
| 20260508081634 | 54 | 183 | 5.2 | 10.4 | 0.00 | 0.00 | 0.00 | 80 | 1016.8 |
| 20260508081134 | 53 | 219 | 0.9 | 7.0 | 0.00 | 0.00 | 0.00 | 81 | 1016.8 |
| 20260508080634 | 53 | 149 | 3.5 | 7.0 | 0.00 | 0.00 | 0.00 | 81 | 1016.7 |
| 20260508080132 | 53 | 164 | 3.5 | 9.6 | 0.00 | 0.00 | 0.00 | 81 | 1016.7 |
| 20260508075632 | 53 | 185 | 4.3 | 9.6 | 0.00 | 0.00 | 0.00 | 81 | 1016.7 |
| 20260508075132 | 53 | 186 | 3.5 | 7.8 | 0.00 | 0.00 | 0.00 | 81 | 1016.7 |
| 20260508074634 | 53 | 214 | 5.2 | 11.3 | 0.00 | 0.00 | 0.00 | 80 | 1016.6 |
| 20260508073635 | 53 | 234 | 4.3 | 7.8 | 0.00 | 0.00 | 0.00 | 80 | 1016.6 |
| 20260508073134 | 53 | 203 | 4.3 | 7.8 | 0.00 | 0.00 | 0.00 | 80 | 1016.6 |
| 20260508072634 | 53 | 233 | 5.2 | 7.8 | 0.00 | 0.00 | 0.00 | 79 | 1016.4 |
| 20260508072133 | 53 | 275 | 2.6 | 9.6 | 0.00 | 0.00 | 0.00 | 79 | 1016.4 |
| 20260508071635 | 53 | 223 | 6.1 | 13.0 | 0.00 | 0.00 | 0.00 | 79 | 1016.3 |
| 20260508071136 | 53 | 172 | 4.3 | 13.0 | 0.00 | 0.00 | 0.00 | 79 | 1016.2 |
| 20260508070134 | 52 | 210 | 5.2 | 13.9 | 0.00 | 0.00 | 0.00 | 79 | 1016.1 |
| 20260508065633 | 52 | 171 | 7.8 | 13.9 | 0.00 | 0.00 | 0.00 | 79 | 1016.0 |
| 20260508065133 | 52 | 196 | 6.1 | 12.2 | 0.00 | 0.00 | 0.00 | 79 | 1015.9 |
| 20260508064632 | 52 | 220 | 5.2 | 13.0 | 0.00 | 0.00 | 0.00 | 80 | 1015.8 |
| 20260508064133 | 51 | 197 | 7.0 | 13.0 | 0.00 | 0.00 | 0.00 | 80 | 1015.7 |
| 20260508063633 | 51 | 220 | 7.0 | 13.0 | 0.00 | 0.00 | 0.00 | 81 | 1015.7 |
| 20260508062633 | 51 | 202 | 6.1 | 13.0 | 0.00 | 0.00 | 0.00 | 82 | 1015.6 |
| 20260508062133 | 50 | 172 | 6.1 | 12.2 | 0.00 | 0.00 | 0.00 | 83 | 1015.5 |
| 20260508061633 | 50 | 159 | 5.2 | 12.2 | 0.00 | 0.00 | 0.00 | 84 | 1015.4 |
| 20260508061133 | 50 | 200 | 6.1 | 13.0 | 0.00 | 0.00 | 0.00 | 84 | 1015.5 |
| 20260508060632 | 50 | 189 | 5.2 | 13.0 | 0.00 | 0.00 | 0.00 | 84 | 1015.5 |
| 20260508060135 | 50 | 155 | 6.1 | 13.0 | 0.00 | 0.00 | 0.00 | 84 | 1015.5 |
| 20260508055633 | 50 | 195 | 5.2 | 13.9 | 0.00 | 0.00 | 0.00 | 84 | 1015.4 |
| 20260508054634 | 50 | 176 | 4.3 | 13.9 | 0.00 | 0.00 | 0.00 | 84 | 1015.4 |
| 20260508054135 | 50 | 186 | 5.2 | 13.9 | 0.00 | 0.00 | 0.00 | 84 | 1015.3 |
| 20260508053632 | 50 | 182 | 7.8 | 13.9 | 0.00 | 0.00 | 0.00 | 84 | 1015.3 |
| 20260508053133 | 50 | 189 | 7.0 | 12.2 | 0.00 | 0.00 | 0.00 | 84 | 1015.3 |
| 20260508052634 | 49 | 186 | 7.8 | 12.2 | 0.00 | 0.00 | 0.00 | 84 | 1015.2 |
| 20260508052133 | 49 | 158 | 7.0 | 12.2 | 0.00 | 0.00 | 0.00 | 85 | 1015.2 |
| 20260508051632 | 49 | 182 | 6.1 | 12.2 | 0.00 | 0.00 | 0.00 | 84 | 1015.3 |
| 20260508050634 | 49 | 175 | 7.8 | 13.9 | 0.00 | 0.00 | 0.00 | 85 | 1015.3 |
| 20260508050135 | 49 | 169 | 7.0 | 13.9 | 0.00 | 0.00 | 0.00 | 85 | 1015.3 |
| 20260508045633 | 49 | 173 | 7.8 | 12.2 | 0.00 | 0.00 | 0.00 | 85 | 1015.2 |
| 20260508045134 | 49 | 195 | 7.8 | 13.0 | 0.00 | 0.00 | 0.00 | 85 | 1015.3 |
| 20260508044632 | 49 | 171 | 5.2 | 13.0 | 0.00 | 0.00 | 0.00 | 85 | 1015.2 |
| 20260508044133 | 49 | 178 | 6.1 | 11.3 | 0.00 | 0.00 | 0.00 | 85 | 1015.2 |
| 20260508043133 | 49 | 159 | 5.2 | 10.4 | 0.00 | 0.00 | 0.00 | 85 | 1015.1 |
| 20260508042133 | 49 | 179 | 5.2 | 11.3 | 0.00 | 0.00 | 0.00 | 85 | 1015.2 |
| 20260508041134 | 48 | 175 | 6.1 | 12.2 | 0.00 | 0.00 | 0.00 | 85 | 1015.2 |
| 20260508040634 | 48 | 190 | 6.1 | 10.4 | 0.00 | 0.00 | 0.00 | 85 | 1015.1 |
| 20260508040134 | 48 | 204 | 5.2 | 10.4 | 0.00 | 0.00 | 0.00 | 85 | 1015.1 |
| 20260508035635 | 48 | 165 | 4.3 | 7.8 | 0.00 | 0.00 | 0.00 | 85 | 1015.1 |
| 20260508035133 | 48 | 203 | 4.3 | 7.8 | 0.00 | 0.00 | 0.00 | 84 | 1015.1 |
| 20260508034635 | 49 | 175 | 2.6 | 9.6 | 0.00 | 0.00 | 0.00 | 84 | 1015.1 |
| 20260508034135 | 49 | 196 | 4.3 | 9.6 | 0.00 | 0.00 | 0.00 | 84 | 1015.0 |
| 20260508033633 | 49 | 179 | 5.2 | 13.0 | 0.00 | 0.00 | 0.00 | 84 | 1015.0 |
| 20260508033134 | 49 | 206 | 6.1 | 13.0 | 0.00 | 0.00 | 0.00 | 84 | 1015.0 |
| 20260508032133 | 49 | 188 | 4.3 | 10.4 | 0.00 | 0.00 | 0.00 | 84 | 1015.0 |
| 20260508031636 | 49 | 180 | 4.3 | 9.6 | 0.00 | 0.00 | 0.00 | 83 | 1015.0 |
| 20260508031133 | 49 | 166 | 4.3 | 12.2 | 0.00 | 0.00 | 0.00 | 83 | 1014.9 |
| 20260508030632 | 50 | 173 | 6.1 | 14.8 | 0.00 | 0.00 | 0.00 | 83 | 1015.0 |
| 20260508030132 | 50 | 185 | 7.8 | 14.8 | 0.00 | 0.00 | 0.00 | 82 | 1014.9 |
| 20260508025633 | 50 | 183 | 5.2 | 10.4 | 0.00 | 0.00 | 0.00 | 82 | 1014.8 |
| 20260508025134 | 50 | 173 | 6.1 | 11.3 | 0.00 | 0.00 | 0.00 | 82 | 1014.8 |
| 20260508024634 | 50 | 192 | 5.2 | 11.3 | 0.00 | 0.00 | 0.00 | 82 | 1014.9 |
| 20260508024134 | 50 | 176 | 6.1 | 13.0 | 0.00 | 0.00 | 0.00 | 82 | 1014.9 |
| 20260508023133 | 50 | 168 | 6.1 | 12.2 | 0.00 | 0.00 | 0.00 | 82 | 1014.9 |
| 20260508022634 | 50 | 158 | 7.0 | 12.2 | 0.00 | 0.00 | 0.00 | 82 | 1015.0 |
| 20260508021633 | 50 | 172 | 5.2 | 12.2 | 0.00 | 0.00 | 0.00 | 81 | 1014.9 |
| 20260508021133 | 50 | 202 | 5.2 | 12.2 | 0.00 | 0.00 | 0.00 | 81 | 1015.0 |
| 20260508020630 | 51 | 213 | 7.8 | 14.8 | 0.00 | 0.00 | 0.00 | 82 | 1014.9 |
| 20260508020104 | 51 | 164 | 7.8 | 14.8 | 0.00 | 0.00 | 0.00 | 81 | 1014.9 |
| 20260508015603 | 51 | 149 | 7.8 | 13.0 | 0.00 | 0.00 | 0.00 | 82 | 1014.8 |
| 20260508015103 | 51 | 226 | 7.0 | 12.2 | 0.00 | 0.00 | 0.00 | 82 | 1014.9 |
| 20260508014604 | 51 | 210 | 7.0 | 13.9 | 0.00 | 0.00 | 0.00 | 81 | 1014.9 |
| 20260508014104 | 51 | 168 | 7.8 | 13.9 | 0.00 | 0.00 | 0.00 | 82 | 1014.8 |
| 20260508013104 | 50 | 176 | 8.7 | 16.5 | 0.00 | 0.00 | 0.00 | 81 | 1014.9 |
| 20260508012104 | 50 | 207 | 7.8 | 14.8 | 0.00 | 0.00 | 0.00 | 81 | 1014.9 |
| 20260508011602 | 50 | 158 | 6.1 | 13.0 | 0.00 | 0.00 | 0.00 | 81 | 1014.9 |
| 20260508011032 | 50 | 171 | 6.1 | 13.9 | 0.00 | 0.00 | 0.00 | 81 | 1014.9 |
| 20260508010532 | 51 | 151 | 7.8 | 13.9 | 0.00 | 0.00 | 0.00 | 81 | 1014.9 |
| 20260508010034 | 51 | 135 | 7.8 | 13.9 | 0.00 | 0.00 | 0.00 | 80 | 1014.8 |
| 20260508005532 | 51 | 188 | 4.3 | 14.8 | 0.00 | 0.00 | 0.00 | 80 | 1014.9 |
| 20260508005033 | 51 | 169 | 7.8 | 14.8 | 0.00 | 0.00 | 0.00 | 80 | 1015.0 |
| 20260508004534 | 51 | 206 | 7.8 | 18.2 | 0.00 | 0.00 | 0.00 | 80 | 1015.0 |
| 20260508004033 | 51 | 183 | 11.3 | 18.2 | 0.00 | 0.00 | 0.00 | 80 | 1015.1 |
| 20260508003532 | 51 | 168 | 7.8 | 15.6 | 0.00 | 0.00 | 0.00 | 79 | 1015.0 |
| 20260508003035 | 51 | 164 | 7.0 | 14.8 | 0.00 | 0.00 | 0.00 | 79 | 1015.1 |
| 20260508002533 | 51 | 159 | 8.7 | 15.6 | 0.00 | 0.00 | 0.00 | 79 | 1015.1 |
| 20260508002033 | 51 | 171 | 9.6 | 15.6 | 0.00 | 0.00 | 0.00 | 78 | 1015.1 |
| 20260508001033 | 51 | 180 | 5.2 | 14.8 | 0.00 | 0.00 | 0.00 | 78 | 1015.2 |
| 20260508000532 | 51 | 161 | 6.1 | 14.8 | 0.00 | 0.00 | 0.00 | 78 | 1015.1 |
| 20260508000032 | 51 | 203 | 8.7 | 14.8 | 0.00 | 0.00 | 0.00 | 78 | 1015.3 |
| 20260507235534 | 51 | 175 | 7.8 | 16.5 | 0.00 | 0.00 | 0.00 | 78 | 1015.3 |
| 20260507235035 | 51 | 176 | 7.8 | 16.5 | 0.00 | 0.00 | 0.00 | 78 | 1015.1 |
| 20260507234533 | 51 | 178 | 7.0 | 14.8 | 0.00 | 0.00 | 0.00 | 78 | 1015.1 |
| 20260507234035 | 51 | 166 | 7.0 | 14.8 | 0.00 | 0.00 | 0.00 | 79 | 1015.1 |
| 20260507233033 | 51 | 176 | 8.7 | 18.2 | 0.00 | 0.00 | 0.00 | 78 | 1015.1 |
| 20260507232533 | 51 | 180 | 5.2 | 18.2 | 0.00 | 0.00 | 0.00 | 79 | 1015.0 |
| 20260507232034 | 51 | 188 | 8.7 | 19.1 | 0.00 | 0.00 | 0.00 | 79 | 1015.1 |
| 20260507231533 | 51 | 145 | 9.6 | 19.1 | 0.00 | 0.00 | 0.00 | 79 | 1015.1 |
| 20260507231032 | 51 | 172 | 8.7 | 15.6 | 0.00 | 0.00 | 0.00 | 79 | 1015.1 |
| 20260507230532 | 51 | 164 | 7.0 | 15.6 | 0.00 | 0.00 | 0.00 | 79 | 1015.1 |
| 20260507225533 | 51 | 152 | 7.0 | 16.5 | 0.00 | 0.00 | 0.00 | 79 | 1015.1 |
| 20260507225033 | 51 | 210 | 6.1 | 14.8 | 0.00 | 0.00 | 0.00 | 79 | 1015.0 |
| 20260507224535 | 51 | 175 | 5.2 | 15.6 | 0.00 | 0.00 | 0.00 | 79 | 1015.1 |
| 20260507224034 | 51 | 192 | 11.3 | 15.6 | 0.00 | 0.00 | 0.00 | 79 | 1014.9 |
| 20260507223532 | 51 | 173 | 8.7 | 15.6 | 0.00 | 0.00 | 0.00 | 79 | 1014.8 |
| 20260507223033 | 51 | 141 | 9.6 | 13.9 | 0.00 | 0.00 | 0.00 | 79 | 1014.9 |
| 20260507222533 | 51 | 141 | 6.1 | 17.4 | 0.00 | 0.00 | 0.00 | 79 | 1014.9 |
| 20260507222034 | 51 | 159 | 6.1 | 17.4 | 0.00 | 0.00 | 0.00 | 79 | 1015.0 |
| 20260507221532 | 51 | 135 | 7.8 | 13.9 | 0.00 | 0.00 | 0.00 | 79 | 1015.0 |
| 20260507221033 | 51 | 157 | 7.8 | 14.8 | 0.00 | 0.00 | 0.00 | 78 | 1014.9 |
| 20260507220033 | 51 | 141 | 7.0 | 18.2 | 0.00 | 0.00 | 0.00 | 78 | 1015.1 |
| 20260507215535 | 51 | 189 | 8.7 | 18.2 | 0.00 | 0.00 | 0.00 | 77 | 1015.1 |
| 20260507215032 | 51 | 152 | 8.7 | 15.6 | 0.00 | 0.00 | 0.00 | 77 | 1015.1 |
| 20260507214032 | 51 | 121 | 7.0 | 13.9 | 0.00 | 0.00 | 0.00 | 77 | 1015.1 |
| 20260507213532 | 51 | 158 | 5.2 | 12.2 | 0.00 | 0.00 | 0.00 | 77 | 1015.2 |
| 20260507213036 | 51 | 142 | 7.0 | 13.9 | 0.00 | 0.00 | 0.00 | 77 | 1015.1 |
| 20260507212535 | 51 | 147 | 6.1 | 16.5 | 0.00 | 0.00 | 0.00 | 77 | 1015.1 |
| 20260507212033 | 51 | 144 | 8.7 | 16.5 | 0.00 | 0.00 | 0.00 | 77 | 1015.0 |
| 20260507211033 | 52 | 178 | 5.2 | 14.8 | 0.00 | 0.00 | 0.00 | 78 | 1015.1 |
| 20260507210534 | 52 | 165 | 8.7 | 14.8 | 0.00 | 0.00 | 0.00 | 77 | 1015.0 |
| 20260507210029 | 52 | 130 | 5.2 | 13.9 | 0.00 | 0.00 | 0.00 | 77 | 1015.1 |
| 20260507205532 | 52 | 155 | 7.0 | 13.9 | 0.00 | 0.00 | 0.00 | 77 | 1014.9 |
| 20260507205032 | 52 | 149 | 7.8 | 14.8 | 0.00 | 0.00 | 0.00 | 77 | 1014.9 |
| 20260507204533 | 51 | 145 | 7.8 | 14.8 | 0.00 | 0.00 | 0.00 | 78 | 1014.9 |
| 20260507203532 | 51 | 137 | 7.8 | 15.6 | 0.00 | 0.00 | 0.00 | 79 | 1014.9 |
| 20260507202532 | 51 | 140 | 7.0 | 19.1 | 0.00 | 0.00 | 0.00 | 79 | 1014.9 |
| 20260507202032 | 52 | 165 | 5.2 | 12.2 | 0.00 | 0.00 | 0.00 | 79 | 1014.8 |
| 20260507201532 | 52 | 123 | 8.7 | 12.2 | 0.00 | 0.00 | 0.00 | 79 | 1014.8 |
| 20260507201033 | 52 | 148 | 7.0 | 14.8 | 0.00 | 0.00 | 0.00 | 79 | 1014.8 |
| 20260507200034 | 52 | 147 | 6.1 | 12.2 | 0.00 | 0.00 | 0.00 | 77 | 1014.8 |
| 20260507195533 | 52 | 103 | 7.0 | 12.2 | 0.00 | 0.00 | 0.00 | 77 | 1014.7 |
| 20260507195034 | 52 | 133 | 6.1 | 12.2 | 0.00 | 0.00 | 0.00 | 77 | 1014.7 |
| 20260507194532 | 52 | 110 | 7.0 | 12.2 | 0.00 | 0.00 | 0.00 | 77 | 1014.6 |
| 20260507194035 | 53 | 173 | 5.2 | 13.0 | 0.00 | 0.00 | 0.00 | 77 | 1014.5 |
| 20260507193535 | 53 | 155 | 7.8 | 13.0 | 0.00 | 0.00 | 0.00 | 77 | 1014.5 |
| 20260507193040 | 53 | 127 | 5.2 | 9.6 | 0.00 | 0.00 | 0.00 | 77 | 1014.4 |
| 20260507192037 | 53 | 130 | 7.0 | 12.2 | 0.00 | 0.00 | 0.00 | 77 | 1014.5 |
| 20260507191533 | 53 | 152 | 5.2 | 14.8 | 0.00 | 0.00 | 0.00 | 77 | 1014.6 |
| 20260507191033 | 53 | 165 | 5.2 | 14.8 | 0.00 | 0.00 | 0.00 | 76 | 1014.5 |
| 20260507190532 | 53 | 134 | 6.1 | 13.0 | 0.00 | 0.00 | 0.00 | 76 | 1014.5 |
| 20260507190032 | 54 | 114 | 4.3 | 12.2 | 0.00 | 0.00 | 0.00 | 76 | 1014.6 |
| 20260507185033 | 54 | 154 | 3.5 | 9.6 | 0.00 | 0.00 | 0.00 | 75 | 1014.4 |
| 20260507184532 | 54 | 140 | 4.3 | 11.3 | 0.00 | 0.00 | 0.00 | 74 | 1014.4 |
| 20260507183533 | 55 | 138 | 3.5 | 11.3 | 0.00 | 0.00 | 0.00 | 71 | 1014.2 |
| 20260507183033 | 55 | 59 | 6.1 | 11.3 | 0.00 | 0.00 | 0.00 | 71 | 1014.2 |
| 20260507182034 | 55 | 134 | 4.3 | 11.3 | 0.00 | 0.00 | 0.00 | 69 | 1014.2 |
| 20260507181533 | 55 | 154 | 6.1 | 10.4 | 0.00 | 0.00 | 0.00 | 68 | 1014.2 |
| 20260507181035 | 56 | 155 | 3.5 | 11.3 | 0.00 | 0.00 | 0.00 | 68 | 1014.2 |
| 20260507180534 | 56 | 121 | 4.3 | 11.3 | 0.00 | 0.00 | 0.00 | 67 | 1014.2 |
| 20260507180033 | 56 | 158 | 4.3 | 11.3 | 0.00 | 0.00 | 0.00 | 65 | 1014.3 |
| 20260507175540 | 56 | 155 | 4.3 | 13.9 | 0.00 | 0.00 | 0.00 | 65 | 1014.4 |
| 20260507175036 | 56 | 141 | 4.3 | 13.9 | 0.00 | 0.00 | 0.00 | 63 | 1014.3 |
| 20260507174533 | 56 | 168 | 4.3 | 9.6 | 0.00 | 0.00 | 0.00 | 64 | 1014.4 |
| 20260507174033 | 56 | 186 | 4.3 | 9.6 | 0.00 | 0.00 | 0.00 | 64 | 1014.4 |
| 20260507173533 | 56 | 204 | 2.6 | 7.8 | 0.00 | 0.00 | 0.00 | 64 | 1014.4 |
| 20260507173033 | 56 | 183 | 3.5 | 7.8 | 0.00 | 0.00 | 0.00 | 64 | 1014.3 |
| 20260507172533 | 56 | 178 | 2.6 | 10.4 | 0.00 | 0.00 | 0.00 | 64 | 1014.3 |
| 20260507172033 | 56 | 190 | 5.2 | 10.4 | 0.00 | 0.00 | 0.00 | 64 | 1014.4 |
| 20260507171533 | 56 | 196 | 4.3 | 9.6 | 0.00 | 0.00 | 0.00 | 63 | 1014.3 |
| 20260507171034 | 56 | 182 | 5.2 | 10.4 | 0.00 | 0.00 | 0.00 | 63 | 1014.3 |
| 20260507170533 | 56 | 192 | 6.1 | 10.4 | 0.00 | 0.00 | 0.00 | 63 | 1014.4 |
| 20260507165532 | 56 | 199 | 7.0 | 12.2 | 0.00 | 0.00 | 0.00 | 64 | 1014.5 |
| 20260507165033 | 56 | 193 | 5.2 | 9.6 | 0.00 | 0.00 | 0.00 | 64 | 1014.6 |
| 20260507164532 | 56 | 200 | 3.5 | 10.4 | 0.00 | 0.00 | 0.00 | 64 | 1014.6 |
| 20260507164034 | 56 | 185 | 5.2 | 10.4 | 0.00 | 0.00 | 0.00 | 63 | 1014.6 |
| 20260507163533 | 56 | 206 | 4.3 | 10.4 | 0.00 | 0.00 | 0.00 | 64 | 1014.5 |
| 20260507163032 | 56 | 217 | 4.3 | 10.4 | 0.00 | 0.00 | 0.00 | 63 | 1014.5 |
| 20260507162534 | 56 | 190 | 3.5 | 9.6 | 0.00 | 0.00 | 0.00 | 63 | 1014.5 |
| 20260507161535 | 55 | 213 | 4.3 | 7.8 | 0.00 | 0.00 | 0.00 | 63 | 1014.6 |
| 20260507161033 | 55 | 161 | 2.6 | 9.6 | 0.00 | 0.00 | 0.00 | 63 | 1014.6 |
| 20260507160535 | 55 | 196 | 5.2 | 13.0 | 0.00 | 0.00 | 0.00 | 63 | 1014.6 |
| 20260507155533 | 55 | 182 | 6.1 | 11.3 | 0.00 | 0.00 | 0.00 | 61 | 1014.6 |
| 20260507155034 | 55 | 202 | 5.2 | 12.2 | 0.00 | 0.00 | 0.00 | 61 | 1014.7 |
| 20260507154032 | 55 | 189 | 5.2 | 11.3 | 0.00 | 0.00 | 0.00 | 61 | 1014.7 |
| 20260507153534 | 56 | 171 | 6.1 | 13.0 | 0.00 | 0.00 | 0.00 | 61 | 1014.7 |
| 20260507153030 | 56 | 200 | 7.8 | 13.0 | 0.00 | 0.00 | 0.00 | 61 | 1014.8 |
| 20260507152529 | 56 | 203 | 6.1 | 11.3 | 0.00 | 0.00 | 0.00 | 62 | 1014.8 |
| 20260507152029 | 55 | 179 | 7.8 | 13.9 | 0.00 | 0.00 | 0.00 | 61 | 1014.8 |
| 20260507151529 | 55 | 202 | 5.2 | 13.9 | 0.00 | 0.00 | 0.00 | 63 | 1014.8 |
| 20260507151030 | 55 | 209 | 7.8 | 13.9 | 0.00 | 0.00 | 0.00 | 64 | 1014.8 |
| 20260507150531 | 55 | 202 | 6.1 | 15.6 | 0.00 | 0.00 | 0.00 | 64 | 1014.9 |